createdAt,value
2022-09-06T00:00:22.836Z,1010.72
2022-09-06T00:01:22.820Z,1010.74
2022-09-06T00:02:22.836Z,1010.77
2022-09-06T00:03:22.783Z,1010.79
2022-09-06T00:04:22.797Z,1010.77
2022-09-06T00:05:22.753Z,1010.77
2022-09-06T00:06:22.732Z,1010.79
2022-09-06T00:07:22.715Z,1010.81
2022-09-06T00:08:22.798Z,1010.79
2022-09-06T00:09:22.680Z,1010.75
2022-09-06T00:10:22.661Z,1010.75
2022-09-06T00:11:22.646Z,1010.73
2022-09-06T00:12:22.625Z,1010.73
2022-09-06T00:13:22.611Z,1010.72
2022-09-06T00:14:22.591Z,1010.70
2022-09-06T00:15:22.574Z,1010.68
2022-09-06T00:16:22.759Z,1010.67
2022-09-06T00:17:22.545Z,1010.62
2022-09-06T00:18:22.603Z,1010.64
2022-09-06T00:19:22.505Z,1010.64
2022-09-06T00:20:22.485Z,1010.57
2022-09-06T00:21:22.469Z,1010.57
2022-09-06T00:22:22.455Z,1010.53
2022-09-06T00:23:22.433Z,1010.56
2022-09-06T00:24:22.414Z,1010.53
2022-09-06T00:25:22.399Z,1010.53
2022-09-06T00:26:22.379Z,1010.51
2022-09-06T00:27:22.365Z,1010.51
2022-09-06T00:28:22.345Z,1010.52
2022-09-06T00:29:22.329Z,1010.54
2022-09-06T00:30:22.311Z,1010.54
2022-09-06T00:31:22.389Z,1010.52
2022-09-06T00:32:22.279Z,1010.53
2022-09-06T00:33:22.259Z,1010.49
2022-09-06T00:34:22.243Z,1010.50
2022-09-06T00:35:22.225Z,1010.47
2022-09-06T00:36:22.205Z,1010.48
2022-09-06T00:37:22.189Z,1010.48
2022-09-06T00:38:22.170Z,1010.48
2022-09-06T00:39:22.153Z,1010.50
2022-09-06T00:40:22.137Z,1010.42
2022-09-06T00:41:22.121Z,1010.44
2022-09-06T00:42:22.103Z,1010.44
2022-09-06T00:43:22.095Z,1010.45
2022-09-06T00:44:22.066Z,1010.47
2022-09-06T00:45:22.049Z,1010.42
2022-09-06T00:46:22.063Z,1010.42
2022-09-06T00:47:22.007Z,1010.41
2022-09-06T00:48:21.993Z,1010.41
2022-09-06T00:49:21.979Z,1010.40
2022-09-06T00:50:21.958Z,1010.40
2022-09-06T00:51:21.943Z,1010.39
2022-09-06T00:52:21.924Z,1010.37
2022-09-06T00:53:21.908Z,1010.38
2022-09-06T00:54:21.889Z,1010.38
2022-09-06T00:55:21.873Z,1010.40
2022-09-06T00:56:21.855Z,1010.39
2022-09-06T00:57:21.838Z,1010.39
2022-09-06T00:58:21.820Z,1010.39
2022-09-06T00:59:21.850Z,1010.46
2022-09-06T01:00:21.783Z,1010.42
2022-09-06T01:01:21.834Z,1010.47
2022-09-06T01:02:21.972Z,1010.43
2022-09-06T01:03:21.731Z,1010.43
2022-09-06T01:04:21.715Z,1010.40
2022-09-06T01:05:21.698Z,1010.42
2022-09-06T01:06:21.681Z,1010.43
2022-09-06T01:07:21.660Z,1010.43
2022-09-06T01:08:21.701Z,1010.40
2022-09-06T01:09:21.629Z,1010.38
2022-09-06T01:10:21.609Z,1010.36
2022-09-06T01:11:21.595Z,1010.34
2022-09-06T01:12:21.574Z,1010.35
2022-09-06T01:13:21.558Z,1010.36
2022-09-06T01:14:21.541Z,1010.37
2022-09-06T01:15:21.521Z,1010.36
2022-09-06T01:16:21.504Z,1010.36
2022-09-06T01:17:21.485Z,1010.32
2022-09-06T01:18:21.557Z,1010.38
2022-09-06T01:19:21.449Z,1010.33
2022-09-06T01:20:21.438Z,1010.35
2022-09-06T01:21:21.416Z,1010.35
2022-09-06T01:22:21.398Z,1010.27
2022-09-06T01:23:21.379Z,1010.33
2022-09-06T01:24:21.363Z,1010.30
2022-09-06T01:25:21.350Z,1010.28
2022-09-06T01:26:21.327Z,1010.25
2022-09-06T01:27:21.311Z,1010.26
2022-09-06T01:28:21.357Z,1010.25
2022-09-06T01:29:21.278Z,1010.26
2022-09-06T01:30:21.279Z,1010.27
2022-09-06T01:31:21.332Z,1010.28
2022-09-06T01:32:21.222Z,1010.29
2022-09-06T01:33:21.202Z,1010.29
2022-09-06T01:34:21.187Z,1010.29
2022-09-06T01:35:21.169Z,1010.30
2022-09-06T01:36:21.154Z,1010.29
2022-09-06T01:37:21.132Z,1010.26
2022-09-06T01:38:21.145Z,1010.26
2022-09-06T01:39:21.101Z,1010.22
2022-09-06T01:40:21.083Z,1010.22
2022-09-06T01:41:21.064Z,1010.24
2022-09-06T01:42:21.055Z,1010.16
2022-09-06T01:43:21.029Z,1010.19
2022-09-06T01:44:21.013Z,1010.17
2022-09-06T01:45:20.993Z,1010.15
2022-09-06T01:46:21.064Z,1010.16
2022-09-06T01:47:20.958Z,1010.13
2022-09-06T01:48:20.943Z,1010.14
2022-09-06T01:49:20.924Z,1010.09
2022-09-06T01:50:20.908Z,1010.09
2022-09-06T01:51:20.888Z,1010.09
2022-09-06T01:52:20.873Z,1010.08
2022-09-06T01:53:20.853Z,1010.10
2022-09-06T01:54:20.842Z,1010.12
2022-09-06T01:55:20.819Z,1010.12
2022-09-06T01:56:20.815Z,1010.11
2022-09-06T01:57:20.789Z,1010.11
2022-09-06T01:58:20.841Z,1010.12
2022-09-06T01:59:20.750Z,1010.15
2022-09-06T02:00:20.733Z,1010.10
2022-09-06T02:01:20.773Z,1010.13
2022-09-06T02:02:20.711Z,1010.11
2022-09-06T02:03:20.676Z,1010.14
2022-09-06T02:04:20.662Z,1010.15
2022-09-06T02:05:20.646Z,1010.13
2022-09-06T02:06:20.625Z,1010.14
2022-09-06T02:07:20.606Z,1010.14
2022-09-06T02:08:20.590Z,1010.17
2022-09-06T02:09:20.573Z,1010.15
2022-09-06T02:10:20.557Z,1010.20
2022-09-06T02:11:20.538Z,1010.19
2022-09-06T02:12:20.520Z,1010.19
2022-09-06T02:13:20.504Z,1010.19
2022-09-06T02:14:20.487Z,1010.22
2022-09-06T02:15:20.468Z,1010.30
2022-09-06T02:16:20.516Z,1010.29
2022-09-06T02:17:20.433Z,1010.30
2022-09-06T02:18:20.414Z,1010.39
2022-09-06T02:19:20.397Z,1010.49
2022-09-06T02:20:20.380Z,1010.59
2022-09-06T02:21:20.363Z,1010.60
2022-09-06T02:22:20.346Z,1010.58
2022-09-06T02:23:20.327Z,1010.61
2022-09-06T02:24:20.312Z,1010.65
2022-09-06T02:25:20.294Z,1010.60
2022-09-06T02:26:20.274Z,1010.64
2022-09-06T02:27:20.268Z,1010.67
2022-09-06T02:28:20.260Z,1010.66
2022-09-06T02:29:20.239Z,1010.65
2022-09-06T02:30:20.206Z,1010.64
2022-09-06T02:31:20.237Z,1010.64
2022-09-06T02:32:20.171Z,1010.63
2022-09-06T02:33:20.151Z,1010.64
2022-09-06T02:34:20.137Z,1010.63
2022-09-06T02:35:20.118Z,1010.60
2022-09-06T02:36:20.097Z,1010.59
2022-09-06T02:37:20.082Z,1010.56
2022-09-06T02:38:20.062Z,1010.59
2022-09-06T02:39:20.047Z,1010.60
2022-09-06T02:40:20.026Z,1010.56
2022-09-06T02:41:20.008Z,1010.50
2022-09-06T02:42:19.991Z,1010.50
2022-09-06T02:43:19.971Z,1010.50
2022-09-06T02:44:19.957Z,1010.51
2022-09-06T02:45:19.941Z,1010.54
2022-09-06T02:46:19.989Z,1010.48
2022-09-06T02:47:19.901Z,1010.47
2022-09-06T02:48:19.885Z,1010.45
2022-09-06T02:49:19.868Z,1010.46
2022-09-06T02:50:19.848Z,1010.47
2022-09-06T02:51:19.829Z,1010.44
2022-09-06T02:52:19.813Z,1010.45
2022-09-06T02:53:19.795Z,1010.46
2022-09-06T02:54:19.784Z,1010.46
2022-09-06T02:55:19.759Z,1010.43
2022-09-06T02:56:19.744Z,1010.42
2022-09-06T02:57:19.728Z,1010.43
2022-09-06T02:58:19.708Z,1010.45
2022-09-06T02:59:19.694Z,1010.43
2022-09-06T03:00:19.673Z,1010.40
2022-09-06T03:01:19.700Z,1010.43
2022-09-06T03:02:19.701Z,1010.43
2022-09-06T03:03:19.617Z,1010.42
2022-09-06T03:04:19.607Z,1010.43
2022-09-06T03:05:19.588Z,1010.40
2022-09-06T03:06:19.564Z,1010.39
2022-09-06T03:07:19.553Z,1010.37
2022-09-06T03:08:19.531Z,1010.39
2022-09-06T03:09:19.513Z,1010.40
2022-09-06T03:10:19.495Z,1010.39
2022-09-06T03:11:52.684Z,1010.35
2022-09-06T03:12:19.460Z,1010.39
2022-09-06T03:13:19.451Z,1010.39
2022-09-06T03:14:19.425Z,1010.38
2022-09-06T03:15:19.404Z,1010.39
2022-09-06T03:16:19.465Z,1010.34
2022-09-06T03:17:19.371Z,1010.28
2022-09-06T03:18:19.354Z,1010.29
2022-09-06T03:19:19.335Z,1010.25
2022-09-06T03:20:19.317Z,1010.20
2022-09-06T03:21:19.302Z,1010.18
2022-09-06T03:22:19.279Z,1010.17
2022-09-06T03:23:19.264Z,1010.21
2022-09-06T03:24:19.244Z,1010.20
2022-09-06T03:25:19.228Z,1010.17
2022-09-06T03:26:19.213Z,1010.19
2022-09-06T03:27:19.193Z,1010.22
2022-09-06T03:28:19.174Z,1010.19
2022-09-06T03:29:19.158Z,1010.18
2022-09-06T03:30:19.138Z,1010.21
2022-09-06T03:31:19.190Z,1010.21
2022-09-06T03:32:19.103Z,1010.21
2022-09-06T03:33:19.087Z,1010.17
2022-09-06T03:34:19.065Z,1010.20
2022-09-06T03:35:19.055Z,1010.18
2022-09-06T03:36:19.033Z,1010.22
2022-09-06T03:37:19.016Z,1010.20
2022-09-06T03:38:18.996Z,1010.18
2022-09-06T03:39:18.979Z,1010.20
2022-09-06T03:40:18.962Z,1010.20
2022-09-06T03:41:18.948Z,1010.21
2022-09-06T03:42:18.926Z,1010.23
2022-09-06T03:43:18.905Z,1010.23
2022-09-06T03:44:18.887Z,1010.30
2022-09-06T03:45:18.870Z,1010.33
2022-09-06T03:46:18.902Z,1010.34
2022-09-06T03:47:19.705Z,1010.30
2022-09-06T03:48:18.821Z,1010.35
2022-09-06T03:49:18.800Z,1010.31
2022-09-06T03:50:18.783Z,1010.32
2022-09-06T03:51:18.763Z,1010.30
2022-09-06T03:52:18.747Z,1010.30
2022-09-06T03:53:18.729Z,1010.28
2022-09-06T03:54:18.707Z,1010.26
2022-09-06T03:55:18.693Z,1010.25
2022-09-06T03:56:18.675Z,1010.29
2022-09-06T03:57:18.658Z,1010.25
2022-09-06T03:58:18.637Z,1010.28
2022-09-06T03:59:18.625Z,1010.25
2022-09-06T04:00:18.601Z,1010.26
2022-09-06T04:01:18.653Z,1010.28
2022-09-06T04:02:18.604Z,1010.31
2022-09-06T04:03:18.548Z,1010.26
2022-09-06T04:04:18.529Z,1010.26
2022-09-06T04:05:18.512Z,1010.21
2022-09-06T04:06:18.494Z,1010.21
2022-09-06T04:07:18.476Z,1010.17
2022-09-06T04:08:18.455Z,1010.17
2022-09-06T04:09:18.441Z,1010.17
2022-09-06T04:10:18.419Z,1010.17
2022-09-06T04:11:18.408Z,1010.21
2022-09-06T04:12:18.384Z,1010.26
2022-09-06T04:13:18.369Z,1010.28
2022-09-06T04:14:18.346Z,1010.29
2022-09-06T04:15:18.331Z,1010.31
2022-09-06T04:16:18.383Z,1010.28
2022-09-06T04:17:18.294Z,1010.24
2022-09-06T04:18:18.273Z,1010.20
2022-09-06T04:19:18.259Z,1010.21
2022-09-06T04:20:18.240Z,1010.18
2022-09-06T04:21:18.232Z,1010.18
2022-09-06T04:22:18.202Z,1010.20
2022-09-06T04:23:18.193Z,1010.21
2022-09-06T04:24:18.171Z,1010.23
2022-09-06T04:25:18.151Z,1010.23
2022-09-06T04:26:18.133Z,1010.24
2022-09-06T04:27:18.116Z,1010.23
2022-09-06T04:28:18.098Z,1010.23
2022-09-06T04:29:18.077Z,1010.23
2022-09-06T04:30:18.059Z,1010.26
2022-09-06T04:31:18.251Z,1010.31
2022-09-06T04:32:18.023Z,1010.25
2022-09-06T04:33:18.005Z,1010.28
2022-09-06T04:34:17.985Z,1010.28
2022-09-06T04:35:17.969Z,1010.32
2022-09-06T04:36:17.951Z,1010.24
2022-09-06T04:37:17.935Z,1010.26
2022-09-06T04:38:17.912Z,1010.21
2022-09-06T04:39:17.896Z,1010.20
2022-09-06T04:40:17.875Z,1010.16
2022-09-06T04:41:17.860Z,1010.16
2022-09-06T04:42:17.841Z,1010.18
2022-09-06T04:43:17.823Z,1010.26
2022-09-06T04:44:17.805Z,1010.28
2022-09-06T04:45:17.788Z,1010.35
2022-09-06T04:46:17.894Z,1010.44
2022-09-06T04:47:17.750Z,1010.45
2022-09-06T04:48:17.733Z,1010.45
2022-09-06T04:49:17.715Z,1010.44
2022-09-06T04:50:17.705Z,1010.41
2022-09-06T04:51:17.681Z,1010.47
2022-09-06T04:52:17.663Z,1010.54
2022-09-06T04:53:17.641Z,1010.65
2022-09-06T04:54:17.622Z,1010.72
2022-09-06T04:55:17.607Z,1010.79
2022-09-06T04:56:17.585Z,1010.78
2022-09-06T04:57:17.569Z,1010.72
2022-09-06T04:58:17.561Z,1010.70
2022-09-06T04:59:17.536Z,1010.67
2022-09-06T05:00:17.512Z,1010.65
2022-09-06T05:01:17.552Z,1010.69
2022-09-06T05:02:17.510Z,1010.73
2022-09-06T05:03:17.457Z,1010.69
2022-09-06T05:04:17.442Z,1010.66
2022-09-06T05:05:17.422Z,1010.63
2022-09-06T05:06:17.408Z,1010.60
2022-09-06T05:07:17.391Z,1010.65
2022-09-06T05:08:17.368Z,1010.59
2022-09-06T05:09:17.351Z,1010.59
2022-09-06T05:10:17.331Z,1010.62
2022-09-06T05:11:17.314Z,1010.61
2022-09-06T05:12:17.295Z,1010.67
2022-09-06T05:13:17.279Z,1010.65
2022-09-06T05:14:17.258Z,1010.68
2022-09-06T05:15:17.241Z,1010.73
2022-09-06T05:16:17.245Z,1010.77
2022-09-06T05:17:17.204Z,1010.81
2022-09-06T05:18:17.184Z,1010.77
2022-09-06T05:19:17.170Z,1010.77
2022-09-06T05:20:17.147Z,1010.76
2022-09-06T05:21:17.131Z,1010.75
2022-09-06T05:22:17.113Z,1010.72
2022-09-06T05:23:17.093Z,1010.74
2022-09-06T05:24:17.075Z,1010.81
2022-09-06T05:25:17.064Z,1010.87
2022-09-06T05:26:17.047Z,1010.92
2022-09-06T05:27:17.020Z,1010.87
2022-09-06T05:28:17.002Z,1010.78
2022-09-06T05:29:16.983Z,1010.76
2022-09-06T05:30:16.968Z,1010.80
2022-09-06T05:31:17.031Z,1010.83
2022-09-06T05:32:16.930Z,1010.84
2022-09-06T05:33:16.912Z,1010.81
2022-09-06T05:34:16.893Z,1010.83
2022-09-06T05:35:16.875Z,1010.87
2022-09-06T05:36:16.864Z,1010.98
2022-09-06T05:37:16.837Z,1010.98
2022-09-06T05:38:16.818Z,1010.94
2022-09-06T05:39:16.799Z,1010.90
2022-09-06T05:40:16.783Z,1010.88
2022-09-06T05:41:16.766Z,1010.81
2022-09-06T05:42:19.267Z,1010.80
2022-09-06T05:43:16.729Z,1010.87
2022-09-06T05:44:16.710Z,1010.93
2022-09-06T05:45:16.692Z,1011.04
2022-09-06T05:46:16.742Z,1011.04
2022-09-06T05:47:16.656Z,1011.06
2022-09-06T05:48:16.645Z,1011.01
2022-09-06T05:49:16.618Z,1010.94
2022-09-06T05:50:16.600Z,1010.84
2022-09-06T05:51:16.581Z,1010.80
2022-09-06T05:52:16.571Z,1010.81
2022-09-06T05:53:16.553Z,1010.83
2022-09-06T05:54:16.526Z,1010.89
2022-09-06T05:55:16.510Z,1010.89
2022-09-06T05:56:16.495Z,1010.93
2022-09-06T05:57:16.471Z,1010.96
2022-09-06T05:58:16.452Z,1010.93
2022-09-06T05:59:16.434Z,1010.88
2022-09-06T06:00:16.416Z,1010.86
2022-09-06T06:01:16.462Z,1010.80
2022-09-06T06:02:16.485Z,1010.76
2022-09-06T06:03:16.361Z,1010.79
2022-09-06T06:04:16.349Z,1010.79
2022-09-06T06:05:16.324Z,1010.79
2022-09-06T06:06:16.308Z,1010.82
2022-09-06T06:07:16.288Z,1010.74
2022-09-06T06:08:16.270Z,1010.66
2022-09-06T06:09:16.250Z,1010.58
2022-09-06T06:10:16.233Z,1010.54
2022-09-06T06:11:16.215Z,1010.53
2022-09-06T06:12:16.198Z,1010.49
2022-09-06T06:13:16.177Z,1010.45
2022-09-06T06:14:16.160Z,1010.41
2022-09-06T06:15:16.139Z,1010.44
2022-09-06T06:16:16.182Z,1010.45
2022-09-06T06:17:16.104Z,1010.51
2022-09-06T06:18:16.085Z,1010.50
2022-09-06T06:19:16.069Z,1010.67
2022-09-06T06:20:16.050Z,1010.74
2022-09-06T06:21:16.038Z,1010.73
2022-09-06T06:22:16.011Z,1010.62
2022-09-06T06:23:15.992Z,1010.68
2022-09-06T06:24:15.975Z,1010.74
2022-09-06T06:25:15.955Z,1010.86
2022-09-06T06:26:15.940Z,1010.91
2022-09-06T06:27:15.919Z,1010.91
2022-09-06T06:28:15.903Z,1010.91
2022-09-06T06:29:15.886Z,1010.78
2022-09-06T06:30:18.465Z,1010.79
2022-09-06T06:31:15.944Z,1010.81
2022-09-06T06:32:15.830Z,1010.78
2022-09-06T06:33:15.811Z,1010.79
2022-09-06T06:34:15.792Z,1010.79
2022-09-06T06:35:15.772Z,1010.78
2022-09-06T06:36:15.756Z,1010.76
2022-09-06T06:37:15.738Z,1010.73
2022-09-06T06:38:15.717Z,1010.75
2022-09-06T06:39:15.706Z,1010.79
2022-09-06T06:40:15.682Z,1010.79
2022-09-06T06:41:15.664Z,1010.80
2022-09-06T06:42:15.646Z,1010.78
2022-09-06T06:43:15.627Z,1010.79
2022-09-06T06:44:15.607Z,1010.77
2022-09-06T06:45:15.594Z,1010.76
2022-09-06T06:46:15.624Z,1010.75
2022-09-06T06:47:15.561Z,1010.72
2022-09-06T06:48:15.542Z,1010.71
2022-09-06T06:49:15.514Z,1010.67
2022-09-06T06:50:15.497Z,1010.66
2022-09-06T06:51:15.479Z,1010.63
2022-09-06T06:52:15.464Z,1010.57
2022-09-06T06:53:15.444Z,1010.58
2022-09-06T06:54:15.434Z,1010.61
2022-09-06T06:55:15.403Z,1010.58
2022-09-06T06:56:15.388Z,1010.61
2022-09-06T06:57:15.367Z,1010.62
2022-09-06T06:58:15.354Z,1010.64
2022-09-06T06:59:15.331Z,1010.66
2022-09-06T07:00:15.323Z,1010.62
2022-09-06T07:01:15.457Z,1010.61
2022-09-06T07:02:15.482Z,1010.58
2022-09-06T07:03:15.258Z,1010.58
2022-09-06T07:04:15.240Z,1010.62
2022-09-06T07:06:15.205Z,1010.64
2022-09-06T07:07:31.006Z,1010.60
2022-09-06T07:08:15.166Z,1010.64
2022-09-06T07:09:15.146Z,1010.60
2022-09-06T07:11:15.109Z,1010.62
2022-09-06T07:12:15.095Z,1010.66
2022-09-06T07:13:15.075Z,1010.68
2022-09-06T07:14:15.056Z,1010.73
2022-09-06T07:15:15.045Z,1010.81
2022-09-06T07:16:15.129Z,1010.87
2022-09-06T07:17:14.999Z,1010.90
2022-09-06T07:18:14.984Z,1010.85
2022-09-06T07:20:15.476Z,1010.79
2022-09-06T07:22:14.909Z,1010.80
2022-09-06T07:24:14.873Z,1010.87
2022-09-06T07:25:19.074Z,1010.83
2022-09-06T07:26:14.839Z,1010.83
2022-09-06T07:28:14.807Z,1010.76
2022-09-06T07:29:14.782Z,1010.76
2022-09-06T07:30:14.792Z,1010.81
2022-09-06T07:32:14.727Z,1010.89
2022-09-06T07:33:14.708Z,1010.90
2022-09-06T07:34:14.692Z,1010.95
2022-09-06T07:35:14.669Z,1010.90
2022-09-06T07:36:14.668Z,1010.93
2022-09-06T07:37:14.637Z,1010.98
2022-09-06T07:38:14.616Z,1010.96
2022-09-06T07:39:14.595Z,1010.96
2022-09-06T07:40:14.619Z,1011.01
2022-09-06T07:41:14.580Z,1011.00
2022-09-06T07:42:14.545Z,1010.97
2022-09-06T07:43:14.530Z,1011.01
2022-09-06T07:44:14.510Z,1011.01
2022-09-06T07:45:14.491Z,1011.00
2022-09-06T07:46:14.515Z,1011.01
2022-09-06T07:48:14.438Z,1010.99
2022-09-06T07:49:14.421Z,1011.02
2022-09-06T07:51:14.382Z,1010.95
2022-09-06T07:53:16.597Z,1010.93
2022-09-06T07:54:30.005Z,1010.99
2022-09-06T07:55:14.311Z,1010.96
2022-09-06T07:56:14.302Z,1010.96
2022-09-06T07:57:14.276Z,1010.93
2022-09-06T07:58:14.269Z,1010.90
2022-09-06T07:59:14.246Z,1010.89
2022-09-06T08:00:14.240Z,1010.91
2022-09-06T08:01:14.270Z,1010.91
2022-09-06T08:02:14.247Z,1010.91
2022-09-06T08:03:14.169Z,1010.92
2022-09-06T08:04:14.246Z,1010.94
2022-09-06T08:06:14.115Z,1010.97
2022-09-06T08:09:14.061Z,1010.94
2022-09-06T08:10:15.928Z,1010.96
2022-09-06T08:11:14.031Z,1010.95
2022-09-06T08:12:14.012Z,1010.94
2022-09-06T08:13:13.993Z,1010.94
2022-09-06T08:14:13.979Z,1010.95
2022-09-06T08:15:13.959Z,1010.94
2022-09-06T08:16:14.098Z,1010.95
2022-09-06T08:17:13.924Z,1010.98
2022-09-06T08:18:13.905Z,1010.99
2022-09-06T08:19:13.887Z,1010.94
2022-09-06T08:20:13.871Z,1010.94
2022-09-06T08:21:13.860Z,1010.93
2022-09-06T08:22:13.846Z,1010.89
2022-09-06T08:23:13.819Z,1010.92
2022-09-06T08:24:13.807Z,1010.86
2022-09-06T08:25:13.787Z,1010.90
2022-09-06T08:26:13.775Z,1010.91
2022-09-06T08:27:13.752Z,1010.90
2022-09-06T08:28:13.737Z,1010.93
2022-09-06T08:29:13.720Z,1010.92
2022-09-06T08:30:13.702Z,1010.95
2022-09-06T08:31:13.789Z,1010.90
2022-09-06T08:32:13.683Z,1010.95
2022-09-06T08:33:13.649Z,1010.93
2022-09-06T08:34:13.634Z,1010.91
2022-09-06T08:35:13.617Z,1010.93
2022-09-06T08:36:13.600Z,1010.91
2022-09-06T08:37:13.587Z,1010.91
2022-09-06T08:38:13.564Z,1010.89
2022-09-06T08:39:13.557Z,1010.92
2022-09-06T08:40:13.642Z,1010.91
2022-09-06T08:41:13.514Z,1010.90
2022-09-06T08:42:13.496Z,1010.91
2022-09-06T08:43:13.482Z,1010.89
2022-09-06T08:45:13.449Z,1010.88
2022-09-06T08:46:13.437Z,1010.86
2022-09-06T08:47:16.517Z,1010.93
2022-09-06T08:48:13.394Z,1010.93
2022-09-06T08:49:13.380Z,1010.88
2022-09-06T08:50:13.363Z,1010.91
2022-09-06T08:51:13.346Z,1010.86
2022-09-06T08:52:13.330Z,1010.84
2022-09-06T08:53:17.542Z,1010.86
2022-09-06T08:54:13.296Z,1010.87
2022-09-06T08:55:13.282Z,1010.90
2022-09-06T08:56:13.263Z,1010.86
2022-09-06T08:57:13.248Z,1010.82
2022-09-06T08:58:13.230Z,1010.82
2022-09-06T08:59:13.214Z,1010.81
2022-09-06T09:00:13.205Z,1010.87
2022-09-06T09:01:13.259Z,1010.80
2022-09-06T09:02:13.261Z,1010.77
2022-09-06T09:03:16.656Z,1010.76
2022-09-06T09:04:13.131Z,1010.78
2022-09-06T09:05:13.120Z,1010.80
2022-09-06T09:06:13.102Z,1010.73
2022-09-06T09:07:13.086Z,1010.76
2022-09-06T09:08:13.093Z,1010.76
2022-09-06T09:09:13.051Z,1010.72
2022-09-06T09:10:13.040Z,1010.70
2022-09-06T09:11:13.018Z,1010.69
2022-09-06T09:12:13.005Z,1010.70
2022-09-06T09:13:12.988Z,1010.65
2022-09-06T09:14:12.972Z,1010.68
2022-09-06T09:15:12.958Z,1010.68
2022-09-06T09:16:13.016Z,1010.67
2022-09-06T09:17:12.921Z,1010.59
2022-09-06T09:18:12.905Z,1010.62
2022-09-06T09:19:12.892Z,1010.59
2022-09-06T09:20:12.876Z,1010.59
2022-09-06T09:21:12.858Z,1010.63
2022-09-06T09:22:12.839Z,1010.61
2022-09-06T09:23:12.834Z,1010.63
2022-09-06T09:24:12.809Z,1010.60
2022-09-06T09:25:12.796Z,1010.64
2022-09-06T09:26:12.779Z,1010.64
2022-09-06T09:27:12.759Z,1010.61
2022-09-06T09:28:12.747Z,1010.61
2022-09-06T09:29:12.729Z,1010.66
2022-09-06T09:31:12.742Z,1010.66
2022-09-06T09:32:12.684Z,1010.66
2022-09-06T09:33:12.670Z,1010.68
2022-09-06T09:34:12.654Z,1010.69
2022-09-06T09:35:12.643Z,1010.70
2022-09-06T09:36:12.617Z,1010.64
2022-09-06T09:38:12.589Z,1010.59
2022-09-06T09:39:12.572Z,1010.60
2022-09-06T09:40:12.650Z,1010.59
2022-09-06T09:41:12.540Z,1010.54
2022-09-06T09:42:12.530Z,1010.54
2022-09-06T09:43:12.510Z,1010.53
2022-09-06T09:44:12.490Z,1010.50
2022-09-06T09:45:12.508Z,1010.55
2022-09-06T09:46:12.541Z,1010.50
2022-09-06T09:47:12.447Z,1010.46
2022-09-06T09:48:12.429Z,1010.47
2022-09-06T09:49:12.418Z,1010.47
2022-09-06T09:50:12.402Z,1010.46
2022-09-06T09:51:18.267Z,1010.45
2022-09-06T09:52:12.368Z,1010.46
2022-09-06T09:53:12.352Z,1010.43
2022-09-06T09:54:12.335Z,1010.41
2022-09-06T09:55:12.320Z,1010.41
2022-09-06T09:56:12.304Z,1010.39
2022-09-06T09:57:12.367Z,1010.44
2022-09-06T09:58:12.273Z,1010.44
2022-09-06T09:59:12.260Z,1010.48
2022-09-06T10:00:12.243Z,1010.47
2022-09-06T10:01:12.327Z,1010.49
2022-09-06T10:02:12.212Z,1010.49
2022-09-06T10:03:12.236Z,1010.50
2022-09-06T10:05:12.195Z,1010.48
2022-09-06T10:07:12.136Z,1010.44
2022-09-06T10:08:12.125Z,1010.39
2022-09-06T10:09:15.033Z,1010.39
2022-09-06T10:10:12.088Z,1010.37
2022-09-06T10:11:12.074Z,1010.37
2022-09-06T10:12:12.064Z,1010.34
2022-09-06T10:13:12.046Z,1010.36
2022-09-06T10:14:12.027Z,1010.34
2022-09-06T10:15:12.019Z,1010.37
2022-09-06T10:16:12.076Z,1010.36
2022-09-06T10:17:11.986Z,1010.36
2022-09-06T10:18:11.969Z,1010.30
2022-09-06T10:19:11.960Z,1010.31
2022-09-06T10:20:11.976Z,1010.28
2022-09-06T10:21:11.931Z,1010.32
2022-09-06T10:22:11.910Z,1010.26
2022-09-06T10:23:11.898Z,1010.24
2022-09-06T10:24:27.916Z,1010.26
2022-09-06T10:25:11.867Z,1010.24
2022-09-06T10:26:11.848Z,1010.25
2022-09-06T10:27:11.835Z,1010.24
2022-09-06T10:28:12.209Z,1010.23
2022-09-06T10:29:11.802Z,1010.22
2022-09-06T10:30:11.887Z,1010.17
2022-09-06T10:31:11.823Z,1010.16
2022-09-06T10:32:11.761Z,1010.14
2022-09-06T10:33:11.743Z,1010.14
2022-09-06T10:34:11.728Z,1010.16
2022-09-06T10:35:11.718Z,1010.11
2022-09-06T10:36:11.701Z,1010.11
2022-09-06T10:37:11.686Z,1010.10
2022-09-06T10:38:11.670Z,1010.07
2022-09-06T10:39:11.657Z,1010.03
2022-09-06T10:40:11.760Z,1010.08
2022-09-06T10:41:11.624Z,1010.03
2022-09-06T10:42:11.608Z,1010.05
2022-09-06T10:43:11.598Z,1010.06
2022-09-06T10:44:11.581Z,1010.04
2022-09-06T10:45:11.567Z,1010.07
2022-09-06T10:46:11.616Z,1010.03
2022-09-06T10:47:11.555Z,1010.03
2022-09-06T10:48:14.756Z,1010.02
2022-09-06T10:49:11.507Z,1009.99
2022-09-06T10:50:11.568Z,1010.00
2022-09-06T10:51:11.479Z,1010.04
2022-09-06T10:52:11.462Z,1010.01
2022-09-06T10:53:11.455Z,1009.97
2022-09-06T10:54:11.433Z,1010.01
2022-09-06T10:55:11.424Z,1010.03
2022-09-06T10:56:11.401Z,1010.00
2022-09-06T10:58:19.652Z,1010.00
2022-09-06T10:59:39.655Z,1009.97
2022-09-06T11:00:11.430Z,1009.98
2022-09-06T11:01:11.374Z,1009.97
2022-09-06T11:02:11.504Z,1009.95
2022-09-06T11:04:12.859Z,1009.96
2022-09-06T11:06:11.260Z,1009.93
2022-09-06T11:07:11.241Z,1009.92
2022-09-06T11:09:11.214Z,1009.89
2022-09-06T11:10:11.203Z,1009.91
2022-09-06T11:11:11.187Z,1009.85
2022-09-06T11:12:11.170Z,1009.86
2022-09-06T11:13:11.157Z,1009.89
2022-09-06T11:14:11.138Z,1009.89
2022-09-06T11:15:11.132Z,1009.88
2022-09-06T11:16:11.171Z,1009.88
2022-09-06T11:17:11.096Z,1009.87
2022-09-06T11:18:11.086Z,1009.89
2022-09-06T11:19:11.069Z,1009.87
2022-09-06T11:20:11.055Z,1009.84
2022-09-06T11:21:11.038Z,1009.89
2022-09-06T11:22:11.023Z,1009.92
2022-09-06T11:23:11.015Z,1009.90
2022-09-06T11:24:10.996Z,1009.87
2022-09-06T11:25:10.983Z,1009.87
2022-09-06T11:26:10.969Z,1009.86
2022-09-06T11:27:10.953Z,1009.86
2022-09-06T11:28:10.940Z,1009.88
2022-09-06T11:29:10.927Z,1009.87
2022-09-06T11:30:10.909Z,1009.85
2022-09-06T11:32:18.491Z,1009.83
2022-09-06T11:33:10.869Z,1009.83
2022-09-06T11:34:10.865Z,1009.84
2022-09-06T11:35:10.841Z,1009.85
2022-09-06T11:36:10.825Z,1009.85
2022-09-06T11:37:10.812Z,1009.83
2022-09-06T11:38:10.798Z,1009.82
2022-09-06T11:39:10.783Z,1009.86
2022-09-06T11:40:27.303Z,1009.77
2022-09-06T11:41:12.222Z,1009.77
2022-09-06T11:42:10.742Z,1009.76
2022-09-06T11:43:10.726Z,1009.79
2022-09-06T11:44:10.711Z,1009.77
2022-09-06T11:45:10.698Z,1009.80
2022-09-06T11:46:10.723Z,1009.81
2022-09-06T11:47:10.671Z,1009.77
2022-09-06T11:48:10.656Z,1009.73
2022-09-06T11:49:10.644Z,1009.71
2022-09-06T11:50:10.625Z,1009.70
2022-09-06T11:51:10.617Z,1009.72
2022-09-06T11:52:10.600Z,1009.70
2022-09-06T11:53:10.584Z,1009.69
2022-09-06T11:54:10.571Z,1009.69
2022-09-06T11:55:10.560Z,1009.73
2022-09-06T11:56:10.545Z,1009.74
2022-09-06T11:57:10.538Z,1009.73
2022-09-06T11:58:10.515Z,1009.76
2022-09-06T11:59:10.499Z,1009.78
2022-09-06T12:00:10.486Z,1009.76
2022-09-06T12:01:10.476Z,1009.73
2022-09-06T12:02:10.456Z,1009.73
2022-09-06T12:04:10.666Z,1009.69
2022-09-06T12:05:10.419Z,1009.65
2022-09-06T12:06:10.400Z,1009.63
2022-09-06T12:07:10.396Z,1009.61
2022-09-06T12:08:10.378Z,1009.61
2022-09-06T12:09:10.361Z,1009.57
2022-09-06T12:10:10.347Z,1009.53
2022-09-06T12:11:10.331Z,1009.53
2022-09-06T12:12:14.782Z,1009.53
2022-09-06T12:13:10.311Z,1009.51
2022-09-06T12:14:10.293Z,1009.49
2022-09-06T12:15:10.280Z,1009.43
2022-09-06T12:16:10.329Z,1009.47
2022-09-06T12:17:10.248Z,1009.44
2022-09-06T12:18:10.230Z,1009.46
2022-09-06T12:19:10.220Z,1009.45
2022-09-06T12:20:10.205Z,1009.47
2022-09-06T12:21:10.191Z,1009.42
2022-09-06T12:22:10.178Z,1009.44
2022-09-06T12:23:10.165Z,1009.49
2022-09-06T12:24:10.150Z,1009.44
2022-09-06T12:25:10.139Z,1009.41
2022-09-06T12:26:10.121Z,1009.48
2022-09-06T12:27:10.108Z,1009.40
2022-09-06T12:28:10.094Z,1009.39
2022-09-06T12:29:10.082Z,1009.39